createdAt,value
2023-04-24T00:01:59.316Z,10.60
2023-04-24T00:04:27.786Z,10.60
2023-04-24T00:06:58.295Z,10.60
2023-04-24T00:09:26.182Z,10.60
2023-04-24T00:11:54.587Z,10.60
2023-04-24T00:14:22.350Z,10.60
2023-04-24T00:16:50.125Z,10.60
2023-04-24T00:19:22.202Z,10.50
2023-04-24T00:21:51.116Z,10.50
2023-04-24T00:24:19.237Z,10.50
2023-04-24T00:26:46.990Z,10.50
2023-04-24T00:29:14.786Z,10.60
2023-04-24T00:31:42.641Z,10.50
2023-04-24T00:34:11.372Z,10.50
2023-04-24T00:36:41.111Z,10.50
2023-04-24T00:39:09.778Z,10.50
2023-04-24T00:41:37.699Z,10.50
2023-04-24T00:44:05.671Z,10.50
2023-04-24T00:46:33.776Z,10.50
2023-04-24T00:49:01.745Z,10.50
2023-04-24T00:51:29.482Z,10.40
2023-04-24T00:53:58.538Z,10.40
2023-04-24T00:56:26.354Z,10.40
2023-04-24T00:58:54.390Z,10.40
2023-04-24T01:01:23.031Z,10.50
2023-04-24T01:03:52.959Z,10.40
2023-04-24T01:06:22.257Z,10.40
2023-04-24T01:08:50.629Z,10.40
2023-04-24T01:11:20.591Z,10.40
2023-04-24T01:13:48.983Z,10.40
2023-04-24T01:16:18.302Z,10.40
2023-04-24T01:18:46.808Z,10.50
2023-04-24T01:21:15.923Z,10.40
2023-04-24T01:23:45.180Z,10.40
2023-04-24T01:26:13.327Z,10.50
2023-04-24T01:28:41.204Z,10.40
2023-04-24T01:31:09.009Z,10.40
2023-04-24T01:33:36.947Z,10.40
2023-04-24T01:36:05.283Z,10.40
2023-04-24T01:38:33.010Z,10.40
2023-04-24T01:41:02.444Z,10.40
2023-04-24T01:43:30.709Z,10.40
2023-04-24T01:45:58.457Z,10.40
2023-04-24T01:48:26.332Z,10.40
2023-04-24T01:50:54.032Z,10.30
2023-04-24T01:53:21.886Z,10.30
2023-04-24T01:55:49.609Z,10.30
2023-04-24T01:58:18.698Z,10.30
2023-04-24T02:00:46.464Z,10.30
2023-04-24T02:03:14.246Z,10.30
2023-04-24T02:05:42.367Z,10.20
2023-04-24T02:08:10.181Z,10.20
2023-04-24T02:10:37.940Z,10.20
2023-04-24T02:13:05.661Z,10.20
2023-04-24T02:15:34.770Z,10.10
2023-04-24T02:18:02.528Z,10.10
2023-04-24T02:20:30.302Z,10.00
2023-04-24T02:22:58.413Z,10.00
2023-04-24T02:25:26.311Z,10.00
2023-04-24T02:27:54.071Z,10.00
2023-04-24T02:30:21.858Z,9.90
2023-04-24T02:32:51.152Z,9.90
2023-04-24T02:35:19.056Z,9.90
2023-04-24T02:37:46.801Z,9.80
2023-04-24T02:40:14.759Z,9.80
2023-04-24T02:42:42.500Z,9.80
2023-04-24T02:45:10.920Z,9.80
2023-04-24T02:47:38.747Z,9.70
2023-04-24T02:50:09.517Z,9.70
2023-04-24T02:52:37.278Z,9.60
2023-04-24T02:55:05.604Z,9.50
2023-04-24T02:57:33.319Z,9.40
2023-04-24T03:00:01.244Z,9.30
2023-04-24T03:02:29.068Z,9.30
2023-04-24T03:04:57.970Z,9.30
2023-04-24T03:07:27.268Z,9.20
2023-04-24T03:09:54.983Z,9.20
2023-04-24T03:12:24.650Z,9.20
2023-04-24T03:14:52.380Z,9.20
2023-04-24T03:17:20.412Z,9.20
2023-04-24T03:19:48.139Z,9.20
2023-04-24T03:22:15.888Z,9.20
2023-04-24T03:24:44.961Z,9.20
2023-04-24T03:27:12.687Z,9.10
2023-04-24T03:29:40.698Z,9.10
2023-04-24T03:32:08.557Z,9.10
2023-04-24T03:34:36.300Z,9.10
2023-04-24T03:37:04.007Z,9.10
2023-04-24T03:39:31.747Z,9.10
2023-04-24T03:42:01.266Z,9.10
2023-04-24T03:44:28.995Z,9.00
2023-04-24T03:46:56.728Z,9.00
2023-04-24T03:49:24.470Z,9.00
2023-04-24T03:51:53.182Z,9.00
2023-04-24T03:54:21.283Z,9.00
2023-04-24T03:56:49.015Z,9.00
2023-04-24T03:59:18.158Z,9.00
2023-04-24T04:01:46.829Z,9.00
2023-04-24T04:04:14.837Z,9.00
2023-04-24T04:06:43.249Z,8.90
2023-04-24T04:09:11.368Z,8.90
2023-04-24T04:11:39.086Z,8.90
2023-04-24T04:14:06.989Z,8.90
2023-04-24T04:16:37.147Z,8.90
2023-04-24T04:19:05.074Z,8.90
2023-04-24T04:21:33.146Z,8.90
2023-04-24T04:24:00.876Z,8.90
2023-04-24T04:26:28.660Z,8.90
2023-04-24T04:28:56.626Z,8.80
2023-04-24T04:31:24.376Z,8.80
2023-04-24T04:33:53.453Z,8.80
2023-04-24T04:36:21.148Z,8.80
2023-04-24T04:38:49.418Z,8.80
2023-04-24T04:41:17.760Z,8.80
2023-04-24T04:43:45.546Z,8.80
2023-04-24T04:46:13.304Z,8.80
2023-04-24T04:48:41.316Z,8.80
2023-04-24T04:51:10.444Z,8.80
2023-04-24T04:53:38.184Z,8.80
2023-04-24T04:56:06.079Z,8.80
2023-04-24T04:58:33.843Z,8.80
2023-04-24T05:01:01.600Z,8.80
2023-04-24T05:03:29.506Z,8.80
2023-04-24T05:05:57.335Z,8.70
2023-04-24T05:08:27.791Z,8.70
2023-04-24T05:10:55.800Z,8.70
2023-04-24T05:13:35.702Z,8.70
2023-04-24T05:16:06.789Z,8.70
2023-04-24T05:18:34.596Z,8.70
2023-04-24T05:21:02.340Z,8.70
2023-04-24T05:23:31.509Z,8.70
2023-04-24T05:25:59.396Z,8.70
2023-04-24T05:28:29.130Z,8.70
2023-04-24T05:30:57.329Z,8.70
2023-04-24T05:33:25.115Z,8.70
2023-04-24T05:35:52.884Z,8.70
2023-04-24T05:38:20.834Z,8.70
2023-04-24T05:40:49.929Z,8.70
2023-04-24T05:43:17.645Z,8.70
2023-04-24T05:45:45.378Z,8.70
2023-04-24T05:48:13.079Z,8.70
2023-04-24T05:50:40.890Z,8.70
2023-04-24T05:53:08.897Z,8.70
2023-04-24T05:55:36.760Z,8.70
2023-04-24T05:58:05.860Z,8.70
2023-04-24T06:00:34.011Z,8.60
2023-04-24T06:03:04.680Z,8.60
2023-04-24T06:05:33.127Z,8.60
2023-04-24T06:08:00.938Z,8.50
2023-04-24T06:10:28.728Z,8.50
2023-04-24T06:13:01.055Z,8.40
2023-04-24T06:15:32.231Z,8.40
2023-04-24T06:18:00.409Z,8.40
2023-04-24T06:20:28.525Z,8.30
2023-04-24T06:22:56.533Z,8.30
2023-04-24T06:25:26.282Z,8.30
2023-04-24T06:27:54.014Z,8.20
2023-04-24T06:30:21.723Z,8.20
2023-04-24T06:32:50.879Z,8.20
2023-04-24T06:35:18.788Z,8.20
2023-04-24T06:37:46.562Z,8.20
2023-04-24T06:40:14.378Z,8.10
2023-04-24T06:42:42.112Z,8.10
2023-04-24T06:45:10.786Z,8.10
2023-04-24T06:47:38.847Z,8.10
2023-04-24T06:50:08.935Z,8.10
2023-04-24T06:52:36.708Z,8.20
2023-04-24T06:55:04.945Z,8.20
2023-04-24T06:57:32.977Z,8.10
2023-04-24T07:00:00.734Z,8.10
2023-04-24T07:02:28.637Z,8.10
2023-04-24T07:04:56.496Z,8.10
2023-04-24T07:07:25.726Z,8.10
2023-04-24T07:09:53.465Z,8.10
2023-04-24T07:12:22.586Z,8.00
2023-04-24T07:14:50.520Z,8.00
2023-04-24T07:17:18.280Z,8.00
2023-04-24T07:19:46.372Z,8.00
2023-04-24T07:22:17.684Z,7.90
2023-04-24T07:24:46.777Z,7.90
2023-04-24T07:27:15.819Z,7.90
2023-04-24T07:29:44.175Z,7.90
2023-04-24T07:32:12.266Z,7.90
2023-04-24T07:34:40.003Z,7.90
2023-04-24T07:37:07.756Z,7.90
2023-04-24T07:39:35.473Z,7.90
2023-04-24T07:42:05.212Z,7.90
2023-04-24T07:44:33.106Z,7.90
2023-04-24T07:47:00.854Z,7.90
2023-04-24T07:49:28.825Z,7.90
2023-04-24T07:51:56.542Z,7.80
2023-04-24T07:54:24.259Z,7.80
2023-04-24T07:56:52.035Z,7.80
2023-04-24T07:59:21.079Z,7.80
2023-04-24T08:01:48.801Z,7.80
2023-04-24T08:04:16.946Z,7.80
2023-04-24T08:06:44.778Z,7.80
2023-04-24T08:09:12.660Z,7.80
2023-04-24T08:11:40.478Z,7.70
2023-04-24T08:14:08.265Z,7.70
2023-04-24T08:16:37.594Z,7.60
2023-04-24T08:19:05.550Z,7.60
2023-04-24T08:21:33.498Z,7.60
2023-04-24T08:24:01.486Z,7.50
2023-04-24T08:26:29.256Z,7.50
2023-04-24T08:28:57.062Z,7.40
2023-04-24T08:31:25.932Z,7.40
2023-04-24T08:33:55.166Z,7.40
2023-04-24T08:36:26.374Z,7.40
2023-04-24T08:38:58.324Z,7.40
2023-04-24T08:41:27.137Z,7.30
2023-04-24T08:43:55.949Z,7.40
2023-04-24T08:46:24.520Z,7.30
2023-04-24T08:48:54.044Z,7.30
2023-04-24T08:51:24.535Z,7.30
2023-04-24T08:53:54.752Z,7.20
2023-04-24T08:56:24.304Z,7.20
2023-04-24T08:58:53.567Z,7.20
2023-04-24T09:01:21.949Z,7.20
2023-04-24T09:03:51.211Z,7.10
2023-04-24T09:06:21.245Z,7.10
2023-04-24T09:08:55.534Z,7.10
2023-04-24T09:11:25.213Z,7.10
2023-04-24T09:13:53.516Z,7.10
2023-04-24T09:16:24.120Z,7.00
2023-04-24T09:18:51.957Z,7.00
2023-04-24T09:21:21.872Z,7.00
2023-04-24T09:24:00.237Z,7.00
2023-04-24T09:26:27.982Z,7.00
2023-04-24T09:28:55.794Z,7.00
2023-04-24T09:31:24.109Z,7.00
2023-04-24T09:33:59.133Z,7.00
2023-04-24T09:36:30.728Z,7.00
2023-04-24T09:39:01.926Z,7.00
2023-04-24T09:41:30.709Z,7.10
2023-04-24T09:43:59.807Z,7.10
2023-04-24T09:46:34.030Z,7.10
2023-04-24T09:49:10.439Z,7.20
2023-04-24T09:51:39.537Z,7.20
2023-04-24T09:54:16.631Z,7.20
2023-04-24T09:56:46.071Z,7.20
2023-04-24T09:59:14.226Z,7.20
2023-04-24T10:01:45.309Z,7.20
2023-04-24T10:04:20.351Z,7.20
2023-04-24T10:06:50.606Z,7.20
2023-04-24T10:09:20.475Z,7.20
2023-04-24T10:11:50.670Z,7.20
2023-04-24T10:14:20.166Z,7.20
2023-04-24T10:16:48.726Z,7.20
2023-04-24T10:19:17.020Z,7.20
2023-04-24T10:21:47.454Z,7.30
2023-04-24T10:24:16.180Z,7.30
2023-04-24T10:26:46.107Z,7.30
2023-04-24T10:29:16.222Z,7.40
2023-04-24T10:31:46.803Z,7.40
2023-04-24T10:34:16.396Z,7.40
2023-04-24T10:36:49.131Z,7.50
2023-04-24T10:39:18.630Z,7.50
2023-04-24T10:41:48.110Z,7.50
2023-04-24T10:44:17.604Z,7.50
2023-04-24T10:46:46.677Z,7.60
2023-04-24T10:49:14.447Z,7.60
2023-04-24T10:51:50.007Z,7.70
2023-04-24T10:54:28.765Z,7.70
2023-04-24T10:57:33.935Z,7.70
2023-04-24T11:00:22.149Z,7.80
2023-04-24T11:02:51.771Z,7.90
2023-04-24T11:05:20.865Z,7.90
2023-04-24T11:08:12.714Z,8.00
2023-04-24T11:10:41.996Z,8.00
2023-04-24T11:13:12.680Z,8.10
2023-04-24T11:15:43.773Z,8.10
2023-04-24T11:18:16.355Z,8.10
2023-04-24T11:20:44.985Z,8.10
2023-04-24T11:23:14.748Z,8.10
2023-04-24T11:25:43.687Z,8.20
2023-04-24T11:28:18.020Z,8.30
2023-04-24T11:30:45.788Z,8.30
2023-04-24T11:33:23.150Z,8.40
2023-04-24T11:35:53.275Z,8.40
2023-04-24T11:38:24.685Z,8.40
2023-04-24T11:40:54.040Z,8.40
2023-04-24T11:43:22.942Z,8.40
2023-04-24T11:45:51.229Z,8.40
2023-04-24T11:48:23.361Z,8.50
2023-04-24T11:50:52.870Z,8.60
2023-04-24T11:53:21.670Z,8.70
2023-04-24T11:55:49.524Z,8.80
2023-04-24T11:58:22.295Z,8.90
2023-04-24T12:00:58.968Z,9.10
2023-04-24T12:03:28.381Z,9.20
2023-04-24T12:06:08.703Z,9.40
2023-04-24T12:08:38.281Z,9.50
2023-04-24T12:11:09.058Z,9.50
2023-04-24T12:13:37.678Z,9.60
2023-04-24T12:16:06.802Z,9.70
2023-04-24T12:18:36.012Z,9.80
2023-04-24T12:21:22.668Z,9.90
2023-04-24T12:23:51.688Z,9.90
2023-04-24T12:26:20.932Z,9.90
2023-04-24T12:28:50.925Z,9.80
2023-04-24T12:31:19.048Z,9.80
2023-04-24T12:33:48.196Z,9.70
2023-04-24T12:36:16.009Z,9.60
2023-04-24T12:38:47.385Z,9.50
2023-04-24T12:41:16.506Z,9.50
2023-04-24T12:43:54.334Z,9.50
2023-04-24T12:46:22.822Z,9.40
2023-04-24T12:48:52.674Z,9.40
2023-04-24T12:51:20.538Z,9.50
2023-04-24T12:53:48.361Z,9.50
2023-04-24T12:56:16.317Z,9.50
2023-04-24T12:58:44.103Z,9.60
2023-04-24T13:01:12.299Z,9.70
2023-04-24T13:03:40.560Z,9.70
2023-04-24T13:06:10.472Z,9.80
2023-04-24T13:08:38.312Z,9.80
2023-04-24T13:11:06.445Z,9.90
2023-04-24T13:13:34.248Z,10.00
2023-04-24T13:16:02.439Z,10.00
2023-04-24T13:18:30.243Z,10.00
2023-04-24T13:20:58.070Z,10.00
2023-04-24T13:23:27.235Z,10.10
2023-04-24T13:25:58.438Z,10.20
2023-04-24T13:28:26.508Z,10.30
2023-04-24T13:30:54.268Z,10.30
2023-04-24T13:33:22.075Z,10.40
2023-04-24T13:35:49.861Z,10.40
2023-04-24T13:38:17.646Z,10.40
2023-04-24T13:40:46.782Z,10.50
2023-04-24T13:43:15.018Z,10.50
2023-04-24T13:45:42.820Z,10.50
2023-04-24T13:48:10.921Z,10.50
2023-04-24T13:50:38.963Z,10.50
2023-04-24T13:53:06.729Z,10.50
2023-04-24T13:55:34.580Z,10.50
2023-04-24T13:58:04.157Z,10.50
2023-04-24T14:00:33.079Z,10.60
2023-04-24T14:03:01.901Z,10.60
2023-04-24T14:05:29.949Z,10.60
2023-04-24T14:07:57.820Z,10.60
2023-04-24T14:10:26.473Z,10.50
2023-04-24T14:12:54.363Z,10.50
2023-04-24T14:15:23.590Z,10.50
2023-04-24T14:17:51.609Z,10.50
2023-04-24T14:20:19.597Z,10.40
2023-04-24T14:22:47.593Z,10.40
2023-04-24T14:25:16.238Z,10.30
2023-04-24T14:27:44.289Z,10.30
2023-04-24T14:30:13.585Z,10.20
2023-04-24T14:32:42.752Z,10.20
2023-04-24T14:35:11.032Z,10.30
2023-04-24T14:37:41.971Z,10.30
2023-04-24T14:40:31.950Z,10.30
2023-04-24T14:42:59.158Z,10.40
2023-04-24T14:45:27.522Z,10.50
2023-04-24T14:47:57.491Z,10.50
2023-04-24T14:50:28.805Z,10.50
2023-04-24T14:52:58.249Z,10.50
2023-04-24T14:55:26.865Z,10.50
2023-04-24T14:57:54.718Z,10.50
2023-04-24T15:00:24.230Z,10.50
2023-04-24T15:02:52.442Z,10.50
2023-04-24T15:05:22.207Z,10.50
2023-04-24T15:07:50.330Z,10.40
2023-04-24T15:10:18.576Z,10.40
2023-04-24T15:12:46.953Z,10.40
2023-04-24T15:15:14.738Z,10.40
2023-04-24T15:17:42.546Z,10.50
2023-04-24T15:20:11.150Z,10.60
2023-04-24T15:22:40.295Z,10.80
2023-04-24T15:25:09.129Z,10.90
2023-04-24T15:27:44.078Z,10.90
2023-04-24T15:30:12.712Z,11.00
2023-04-24T15:32:41.423Z,11.00
2023-04-24T15:35:10.646Z,11.10
2023-04-24T15:37:40.457Z,11.10
2023-04-24T15:40:09.429Z,11.20
2023-04-24T15:42:37.431Z,11.20
2023-04-24T15:45:05.784Z,11.30
2023-04-24T15:47:34.509Z,11.40
2023-04-24T15:50:02.362Z,11.30
2023-04-24T15:52:30.240Z,11.30
2023-04-24T15:54:59.402Z,11.40
2023-04-24T15:57:27.334Z,11.40
2023-04-24T15:59:55.420Z,11.40
2023-04-24T16:02:24.086Z,11.40
2023-04-24T16:04:53.072Z,11.30
2023-04-24T16:07:20.945Z,11.30
2023-04-24T16:09:48.737Z,11.30
2023-04-24T16:12:18.292Z,11.20
2023-04-24T16:14:46.245Z,11.20
2023-04-24T16:17:14.373Z,11.10
2023-04-24T16:19:42.158Z,11.20
2023-04-24T16:22:10.017Z,11.20
2023-04-24T16:24:38.031Z,11.20
2023-04-24T16:27:06.235Z,11.20
2023-04-24T16:29:35.750Z,11.20
2023-04-24T16:32:03.601Z,11.10
2023-04-24T16:34:31.404Z,11.10
2023-04-24T16:36:59.657Z,11.10
2023-04-24T16:39:28.127Z,11.10
2023-04-24T16:41:59.039Z,11.10
2023-04-24T16:44:27.658Z,11.00
2023-04-24T16:46:57.069Z,11.00
2023-04-24T16:49:25.045Z,10.90
2023-04-24T16:51:52.854Z,11.00
2023-04-24T16:54:20.744Z,11.00
2023-04-24T16:56:48.746Z,11.00
2023-04-24T16:59:16.661Z,10.90
2023-04-24T17:01:44.449Z,10.90
2023-04-24T17:04:13.776Z,10.90
2023-04-24T17:06:41.786Z,11.00
2023-04-24T17:09:09.627Z,10.90
2023-04-24T17:11:37.553Z,10.90
2023-04-24T17:14:06.147Z,10.90
2023-04-24T17:16:34.038Z,10.90
2023-04-24T17:19:02.024Z,10.80
2023-04-24T17:21:31.524Z,10.80
2023-04-24T17:23:59.471Z,10.80
2023-04-24T17:26:27.553Z,10.70
2023-04-24T17:28:55.860Z,10.70
2023-04-24T17:31:23.701Z,10.70
2023-04-24T17:33:51.560Z,10.60
2023-04-24T17:36:19.490Z,10.60
2023-04-24T17:38:48.970Z,10.60
2023-04-24T17:41:17.032Z,10.50
2023-04-24T17:43:45.599Z,10.60
2023-04-24T17:46:13.641Z,10.50
2023-04-24T17:48:41.486Z,10.50
2023-04-24T17:51:09.321Z,10.50
2023-04-24T17:53:37.115Z,10.40
2023-04-24T17:56:07.006Z,10.40
2023-04-24T17:58:34.921Z,10.40
2023-04-24T18:01:03.063Z,10.40
2023-04-24T18:03:31.206Z,10.30
2023-04-24T18:05:59.200Z,10.20
2023-04-24T18:08:27.050Z,10.20
2023-04-24T18:10:54.906Z,10.20
2023-04-24T18:13:24.065Z,10.10
2023-04-24T18:15:51.887Z,10.00
2023-04-24T18:18:19.801Z,10.00
2023-04-24T18:20:47.640Z,9.90
2023-04-24T18:23:15.416Z,9.80
2023-04-24T18:25:43.244Z,9.80
2023-04-24T18:28:11.446Z,9.70
2023-04-24T18:30:40.677Z,9.60
2023-04-24T18:33:08.576Z,9.60
2023-04-24T18:35:36.458Z,9.50
2023-04-24T18:38:04.255Z,9.50
2023-04-24T18:40:32.275Z,9.40
2023-04-24T18:43:00.073Z,9.30
2023-04-24T18:45:27.897Z,9.30
2023-04-24T18:47:57.080Z,9.20
2023-04-24T18:50:25.653Z,9.20
2023-04-24T18:52:53.492Z,9.10
2023-04-24T18:55:21.434Z,9.00
2023-04-24T18:57:49.205Z,9.00
2023-04-24T19:00:17.854Z,9.00
2023-04-24T19:02:45.724Z,8.90
2023-04-24T19:05:14.892Z,8.90
2023-04-24T19:07:42.898Z,8.90
2023-04-24T19:10:11.483Z,8.70
2023-04-24T19:12:39.594Z,8.70
2023-04-24T19:15:11.486Z,8.70
2023-04-24T19:17:39.358Z,8.60
2023-04-24T19:20:08.444Z,8.50
2023-04-24T19:22:37.640Z,8.50
2023-04-24T19:25:06.257Z,8.40
2023-04-24T19:27:34.047Z,8.30
2023-04-24T19:30:01.894Z,8.20
2023-04-24T19:32:29.844Z,8.20
2023-04-24T19:34:57.702Z,8.10
2023-04-24T19:37:25.613Z,8.10
2023-04-24T19:39:54.891Z,8.10
2023-04-24T19:42:31.905Z,8.00
2023-04-24T19:45:04.336Z,7.90
2023-04-24T19:47:32.118Z,7.80
2023-04-24T19:50:00.146Z,7.70
2023-04-24T19:52:28.290Z,7.70
2023-04-24T19:54:57.524Z,7.70
2023-04-24T19:57:25.310Z,7.60
2023-04-24T19:59:53.105Z,7.60
2023-04-24T20:02:20.993Z,7.50
2023-04-24T20:04:49.055Z,7.50
2023-04-24T20:07:16.996Z,7.50
2023-04-24T20:09:44.858Z,7.50
2023-04-24T20:12:14.016Z,7.40
2023-04-24T20:14:41.865Z,7.40
2023-04-24T20:17:09.794Z,7.40
2023-04-24T20:19:38.866Z,7.40
2023-04-24T20:22:06.741Z,7.40
2023-04-24T20:24:34.564Z,7.40
2023-04-24T20:27:02.649Z,7.30
2023-04-24T20:29:31.824Z,7.30
2023-04-24T20:31:59.834Z,7.30
2023-04-24T20:34:27.698Z,7.30
2023-04-24T20:36:56.558Z,7.30
2023-04-24T20:39:24.388Z,7.20
2023-04-24T20:41:52.385Z,7.20
2023-04-24T20:44:20.277Z,7.10
2023-04-24T20:46:49.525Z,7.10
2023-04-24T20:49:17.337Z,7.10
2023-04-24T20:51:45.115Z,7.10
2023-04-24T20:54:12.901Z,7.00
2023-04-24T20:56:40.798Z,7.00
2023-04-24T20:59:08.590Z,7.00
2023-04-24T21:01:36.396Z,7.00
2023-04-24T21:04:05.598Z,6.90
2023-04-24T21:06:33.445Z,6.90
2023-04-24T21:09:01.185Z,6.80
2023-04-24T21:11:28.910Z,6.80
2023-04-24T21:13:56.637Z,6.70
2023-04-24T21:16:24.427Z,6.70
2023-04-24T21:18:52.243Z,6.60
2023-04-24T21:21:21.300Z,6.60
2023-04-24T21:23:49.290Z,6.60
2023-04-24T21:26:17.673Z,6.50
2023-04-24T21:28:45.573Z,6.50
2023-04-24T21:31:13.288Z,6.50
2023-04-24T21:33:41.008Z,6.40
2023-04-24T21:36:09.188Z,6.40
2023-04-24T21:38:39.791Z,6.40
2023-04-24T21:41:07.543Z,6.30
2023-04-24T21:43:50.392Z,6.30
2023-04-24T21:46:18.627Z,6.20
2023-04-24T21:48:46.416Z,6.20
2023-04-24T21:51:14.391Z,6.10
2023-04-24T21:53:43.436Z,6.10
2023-04-24T21:56:11.576Z,6.10
2023-04-24T21:58:39.788Z,6.10
2023-04-24T22:01:07.747Z,6.00
2023-04-24T22:03:35.784Z,6.10
2023-04-24T22:06:03.735Z,6.10
2023-04-24T22:08:31.456Z,6.00
2023-04-24T22:11:01.051Z,6.00
2023-04-24T22:13:28.852Z,5.90
2023-04-24T22:15:56.679Z,5.90
2023-04-24T22:18:30.542Z,5.90
2023-04-24T22:21:05.259Z,5.90
2023-04-24T22:23:33.246Z,5.90
2023-04-24T22:26:02.287Z,5.80
2023-04-24T22:28:30.110Z,5.80
2023-04-24T22:30:58.255Z,5.80
2023-04-24T22:33:26.003Z,5.80
2023-04-24T22:35:53.720Z,5.80
2023-04-24T22:38:21.437Z,5.80
2023-04-24T22:40:49.193Z,5.80
2023-04-24T22:43:18.343Z,5.80
2023-04-24T22:45:46.119Z,5.80
2023-04-24T22:48:13.830Z,5.80
2023-04-24T22:50:42.298Z,5.80
2023-04-24T22:53:10.074Z,5.80
2023-04-24T22:55:37.872Z,5.80
2023-04-24T22:58:06.291Z,5.80
2023-04-24T23:00:35.382Z,5.80
2023-04-24T23:03:03.236Z,5.80
2023-04-24T23:05:31.939Z,5.80
2023-04-24T23:07:59.663Z,5.80
2023-04-24T23:10:27.399Z,5.70
2023-04-24T23:12:55.126Z,5.70
2023-04-24T23:15:22.910Z,5.70
2023-04-24T23:17:51.991Z,5.60
2023-04-24T23:20:19.786Z,5.60
2023-04-24T23:22:47.521Z,5.60
2023-04-24T23:25:15.753Z,5.50
2023-04-24T23:27:43.462Z,5.50
2023-04-24T23:30:11.677Z,5.40
2023-04-24T23:32:39.428Z,5.40
2023-04-24T23:35:09.679Z,5.30
2023-04-24T23:37:38.297Z,5.30
2023-04-24T23:40:07.675Z,5.30
2023-04-24T23:42:35.569Z,5.20
2023-04-24T23:45:03.421Z,5.20
2023-04-24T23:47:31.302Z,5.20
2023-04-24T23:49:59.044Z,5.20
2023-04-24T23:52:28.205Z,5.10
2023-04-24T23:54:55.935Z,5.10
2023-04-24T23:57:23.673Z,5.10
2023-04-24T23:59:51.387Z,5.10
